sensor_id;sensor_type;location;lat;lon;timestamp;temperature;humidity
20504;DHT22;10410;51.046;6.980;2023-03-23T00:01:15;13.00;99.90
20504;DHT22;10410;51.046;6.980;2023-03-23T00:08:21;13.00;99.90
20504;DHT22;10410;51.046;6.980;2023-03-23T00:15:20;13.10;99.90
20504;DHT22;10410;51.046;6.980;2023-03-23T00:22:23;13.10;99.90
20504;DHT22;10410;51.046;6.980;2023-03-23T00:29:24;13.10;99.90
20504;DHT22;10410;51.046;6.980;2023-03-23T00:36:25;13.10;99.90
20504;DHT22;10410;51.046;6.980;2023-03-23T00:43:25;13.10;99.90
20504;DHT22;10410;51.046;6.980;2023-03-23T00:50:24;13.10;99.90
20504;DHT22;10410;51.046;6.980;2023-03-23T00:57:24;13.10;99.90
20504;DHT22;10410;51.046;6.980;2023-03-23T01:04:24;13.10;99.90
20504;DHT22;10410;51.046;6.980;2023-03-23T01:11:23;13.10;99.90
20504;DHT22;10410;51.046;6.980;2023-03-23T01:18:24;13.10;99.90
20504;DHT22;10410;51.046;6.980;2023-03-23T01:25:23;13.10;99.90
20504;DHT22;10410;51.046;6.980;2023-03-23T01:32:24;13.10;99.90
20504;DHT22;10410;51.046;6.980;2023-03-23T01:39:23;13.10;99.90
20504;DHT22;10410;51.046;6.980;2023-03-23T01:46:25;13.10;99.90
20504;DHT22;10410;51.046;6.980;2023-03-23T01:53:33;13.00;99.90
20504;DHT22;10410;51.046;6.980;2023-03-23T02:00:34;12.90;99.90
20504;DHT22;10410;51.046;6.980;2023-03-23T02:07:34;12.70;99.90
20504;DHT22;10410;51.046;6.980;2023-03-23T02:14:36;12.50;99.90
20504;DHT22;10410;51.046;6.980;2023-03-23T02:29:08;12.30;99.90
20504;DHT22;10410;51.046;6.980;2023-03-23T02:36:28;12.20;99.90
20504;DHT22;10410;51.046;6.980;2023-03-23T02:43:38;12.20;99.90
20504;DHT22;10410;51.046;6.980;2023-03-23T02:50:40;12.20;99.90
20504;DHT22;10410;51.046;6.980;2023-03-23T02:57:41;12.20;99.90
20504;DHT22;10410;51.046;6.980;2023-03-23T03:04:52;12.20;99.90
20504;DHT22;10410;51.046;6.980;2023-03-23T03:12:01;12.20;99.90
20504;DHT22;10410;51.046;6.980;2023-03-23T03:19:16;12.20;99.90
20504;DHT22;10410;51.046;6.980;2023-03-23T03:26:18;12.20;99.90
20504;DHT22;10410;51.046;6.980;2023-03-23T03:33:25;12.20;99.90
20504;DHT22;10410;51.046;6.980;2023-03-23T03:40:26;12.20;99.90
20504;DHT22;10410;51.046;6.980;2023-03-23T03:47:25;12.30;99.90
20504;DHT22;10410;51.046;6.980;2023-03-23T03:54:25;12.30;99.90
20504;DHT22;10410;51.046;6.980;2023-03-23T04:01:25;12.30;99.90
20504;DHT22;10410;51.046;6.980;2023-03-23T04:08:24;12.30;99.90
20504;DHT22;10410;51.046;6.980;2023-03-23T04:15:26;12.30;99.90
20504;DHT22;10410;51.046;6.980;2023-03-23T04:22:27;12.30;99.90
20504;DHT22;10410;51.046;6.980;2023-03-23T04:29:30;12.30;99.90
20504;DHT22;10410;51.046;6.980;2023-03-23T04:36:49;12.30;99.90
20504;DHT22;10410;51.046;6.980;2023-03-23T04:43:53;12.30;99.90
20504;DHT22;10410;51.046;6.980;2023-03-23T04:51:03;12.20;99.90
20504;DHT22;10410;51.046;6.980;2023-03-23T04:58:05;12.20;99.90
20504;DHT22;10410;51.046;6.980;2023-03-23T05:05:22;12.10;99.90
20504;DHT22;10410;51.046;6.980;2023-03-23T05:12:24;12.10;99.90
20504;DHT22;10410;51.046;6.980;2023-03-23T05:19:30;12.20;99.90
20504;DHT22;10410;51.046;6.980;2023-03-23T05:26:33;12.20;99.90
20504;DHT22;10410;51.046;6.980;2023-03-23T05:33:39;12.30;99.90
20504;DHT22;10410;51.046;6.980;2023-03-23T05:40:47;12.30;99.90
20504;DHT22;10410;51.046;6.980;2023-03-23T05:47:50;12.30;99.90
20504;DHT22;10410;51.046;6.980;2023-03-23T05:54:53;12.40;99.90
20504;DHT22;10410;51.046;6.980;2023-03-23T06:01:55;12.40;99.90
20504;DHT22;10410;51.046;6.980;2023-03-23T06:08:57;12.40;99.90
20504;DHT22;10410;51.046;6.980;2023-03-23T06:16:09;12.40;99.90
20504;DHT22;10410;51.046;6.980;2023-03-23T06:23:25;12.40;99.90
20504;DHT22;10410;51.046;6.980;2023-03-23T06:30:26;12.40;99.90
20504;DHT22;10410;51.046;6.980;2023-03-23T06:37:26;12.50;99.90
20504;DHT22;10410;51.046;6.980;2023-03-23T06:44:35;12.50;99.90
20504;DHT22;10410;51.046;6.980;2023-03-23T06:51:35;12.60;99.90
20504;DHT22;10410;51.046;6.980;2023-03-23T06:58:36;12.70;99.90
20504;DHT22;10410;51.046;6.980;2023-03-23T07:05:36;12.70;99.90
20504;DHT22;10410;51.046;6.980;2023-03-23T07:12:37;12.90;99.90
20504;DHT22;10410;51.046;6.980;2023-03-23T07:19:39;12.90;99.90
20504;DHT22;10410;51.046;6.980;2023-03-23T07:26:41;12.90;99.90
20504;DHT22;10410;51.046;6.980;2023-03-23T07:33:41;13.00;99.90
20504;DHT22;10410;51.046;6.980;2023-03-23T07:40:41;13.00;99.90
20504;DHT22;10410;51.046;6.980;2023-03-23T07:47:46;13.10;99.90
20504;DHT22;10410;51.046;6.980;2023-03-23T07:54:45;13.20;99.90
20504;DHT22;10410;51.046;6.980;2023-03-23T08:02:05;13.30;99.90
20504;DHT22;10410;51.046;6.980;2023-03-23T08:09:15;13.40;99.90
20504;DHT22;10410;51.046;6.980;2023-03-23T08:16:35;13.50;99.90
20504;DHT22;10410;51.046;6.980;2023-03-23T08:23:54;13.60;99.90
20504;DHT22;10410;51.046;6.980;2023-03-23T08:31:32;13.70;99.90
20504;DHT22;10410;51.046;6.980;2023-03-23T08:38:56;13.80;99.90
20504;DHT22;10410;51.046;6.980;2023-03-23T08:46:16;13.90;99.90
20504;DHT22;10410;51.046;6.980;2023-03-23T08:53:37;14.00;99.90
20504;DHT22;10410;51.046;6.980;2023-03-23T09:00:56;14.00;99.90
20504;DHT22;10410;51.046;6.980;2023-03-23T09:08:20;14.00;99.90
20504;DHT22;10410;51.046;6.980;2023-03-23T09:15:20;14.00;99.90
20504;DHT22;10410;51.046;6.980;2023-03-23T09:22:20;14.00;99.90
20504;DHT22;10410;51.046;6.980;2023-03-23T09:29:22;14.10;99.90
20504;DHT22;10410;51.046;6.980;2023-03-23T09:36:22;14.10;99.90
20504;DHT22;10410;51.046;6.980;2023-03-23T09:50:36;14.30;99.90
20504;DHT22;10410;51.046;6.980;2023-03-23T09:58:14;14.30;99.90
20504;DHT22;10410;51.046;6.980;2023-03-23T10:05:32;14.30;99.90
20504;DHT22;10410;51.046;6.980;2023-03-23T10:13:35;14.30;99.90
20504;DHT22;10410;51.046;6.980;2023-03-23T10:27:36;14.30;99.90
20504;DHT22;10410;51.046;6.980;2023-03-23T10:34:54;14.30;99.90
20504;DHT22;10410;51.046;6.980;2023-03-23T10:41:55;14.30;99.90
20504;DHT22;10410;51.046;6.980;2023-03-23T10:48:54;14.00;99.90
20504;DHT22;10410;51.046;6.980;2023-03-23T10:55:56;13.70;99.90
20504;DHT22;10410;51.046;6.980;2023-03-23T11:03:00;13.50;99.90
20504;DHT22;10410;51.046;6.980;2023-03-23T11:10:19;13.50;99.90
20504;DHT22;10410;51.046;6.980;2023-03-23T11:17:23;13.40;99.90
20504;DHT22;10410;51.046;6.980;2023-03-23T11:24:26;13.40;99.90
20504;DHT22;10410;51.046;6.980;2023-03-23T11:31:32;13.40;99.90
20504;DHT22;10410;51.046;6.980;2023-03-23T11:38:33;13.50;99.90
20504;DHT22;10410;51.046;6.980;2023-03-23T11:46:01;13.70;99.90
20504;DHT22;10410;51.046;6.980;2023-03-23T12:00:21;13.90;99.90
20504;DHT22;10410;51.046;6.980;2023-03-23T12:21:52;12.30;99.90
20504;DHT22;10410;51.046;6.980;2023-03-23T12:50:27;12.70;99.90
20504;DHT22;10410;51.046;6.980;2023-03-23T13:12:22;13.60;99.90
20504;DHT22;10410;51.046;6.980;2023-03-23T13:19:44;13.80;99.90
20504;DHT22;10410;51.046;6.980;2023-03-23T13:26:44;13.90;99.90
20504;DHT22;10410;51.046;6.980;2023-03-23T13:33:50;14.10;99.90
20504;DHT22;10410;51.046;6.980;2023-03-23T13:40:50;14.10;99.90
20504;DHT22;10410;51.046;6.980;2023-03-23T13:48:17;13.90;99.90
20504;DHT22;10410;51.046;6.980;2023-03-23T13:55:19;13.80;99.90
20504;DHT22;10410;51.046;6.980;2023-03-23T14:02:40;13.90;99.90
20504;DHT22;10410;51.046;6.980;2023-03-23T14:09:44;13.80;99.90
20504;DHT22;10410;51.046;6.980;2023-03-23T14:16:49;13.60;99.90
20504;DHT22;10410;51.046;6.980;2023-03-23T14:23:49;13.60;99.90
20504;DHT22;10410;51.046;6.980;2023-03-23T14:30:52;13.80;99.90
20504;DHT22;10410;51.046;6.980;2023-03-23T14:37:55;14.10;99.90
20504;DHT22;10410;51.046;6.980;2023-03-23T14:44:54;14.20;99.90
20504;DHT22;10410;51.046;6.980;2023-03-23T14:51:55;14.20;99.90
20504;DHT22;10410;51.046;6.980;2023-03-23T14:59:03;14.20;99.90
20504;DHT22;10410;51.046;6.980;2023-03-23T15:06:09;14.20;99.90
20504;DHT22;10410;51.046;6.980;2023-03-23T15:13:12;14.20;99.90
20504;DHT22;10410;51.046;6.980;2023-03-23T15:20:26;14.20;99.90
20504;DHT22;10410;51.046;6.980;2023-03-23T15:27:39;14.30;99.90
20504;DHT22;10410;51.046;6.980;2023-03-23T15:34:39;14.40;99.90
20504;DHT22;10410;51.046;6.980;2023-03-23T15:41:49;14.60;99.90
20504;DHT22;10410;51.046;6.980;2023-03-23T15:48:50;15.20;99.90
20504;DHT22;10410;51.046;6.980;2023-03-23T15:55:50;15.90;99.90
20504;DHT22;10410;51.046;6.980;2023-03-23T16:02:54;15.90;99.90
20504;DHT22;10410;51.046;6.980;2023-03-23T16:09:55;15.90;99.90
20504;DHT22;10410;51.046;6.980;2023-03-23T16:16:56;16.10;99.90
20504;DHT22;10410;51.046;6.980;2023-03-23T16:23:56;16.20;99.90
20504;DHT22;10410;51.046;6.980;2023-03-23T16:30:57;16.00;99.90
20504;DHT22;10410;51.046;6.980;2023-03-23T16:37:57;15.80;99.90
20504;DHT22;10410;51.046;6.980;2023-03-23T16:45:08;15.60;99.90
20504;DHT22;10410;51.046;6.980;2023-03-23T16:52:08;15.50;99.90
20504;DHT22;10410;51.046;6.980;2023-03-23T16:59:09;15.50;99.90
20504;DHT22;10410;51.046;6.980;2023-03-23T17:06:09;15.40;99.90
20504;DHT22;10410;51.046;6.980;2023-03-23T17:13:10;15.30;99.90
20504;DHT22;10410;51.046;6.980;2023-03-23T17:20:12;15.30;99.90
20504;DHT22;10410;51.046;6.980;2023-03-23T17:27:14;15.20;99.90
20504;DHT22;10410;51.046;6.980;2023-03-23T17:34:16;15.10;99.90
20504;DHT22;10410;51.046;6.980;2023-03-23T17:41:19;15.00;99.90
20504;DHT22;10410;51.046;6.980;2023-03-23T17:48:20;14.80;99.90
20504;DHT22;10410;51.046;6.980;2023-03-23T17:55:21;14.70;99.90
20504;DHT22;10410;51.046;6.980;2023-03-23T18:02:21;14.70;99.90
20504;DHT22;10410;51.046;6.980;2023-03-23T18:09:22;14.60;99.90
20504;DHT22;10410;51.046;6.980;2023-03-23T18:16:22;14.40;99.90
20504;DHT22;10410;51.046;6.980;2023-03-23T18:23:23;14.30;99.90
20504;DHT22;10410;51.046;6.980;2023-03-23T18:30:23;14.20;99.90
20504;DHT22;10410;51.046;6.980;2023-03-23T18:37:26;14.10;99.90
20504;DHT22;10410;51.046;6.980;2023-03-23T18:44:26;14.10;99.90
20504;DHT22;10410;51.046;6.980;2023-03-23T18:51:26;14.10;99.90
20504;DHT22;10410;51.046;6.980;2023-03-23T18:58:27;14.10;99.90
20504;DHT22;10410;51.046;6.980;2023-03-23T19:05:28;14.10;99.90
20504;DHT22;10410;51.046;6.980;2023-03-23T19:12:28;14.10;99.90
20504;DHT22;10410;51.046;6.980;2023-03-23T19:19:29;14.10;99.90
20504;DHT22;10410;51.046;6.980;2023-03-23T19:26:38;14.10;99.90
20504;DHT22;10410;51.046;6.980;2023-03-23T19:33:39;14.10;99.90
20504;DHT22;10410;51.046;6.980;2023-03-23T19:40:39;14.10;99.90
20504;DHT22;10410;51.046;6.980;2023-03-23T19:47:42;14.10;99.90
20504;DHT22;10410;51.046;6.980;2023-03-23T19:54:42;14.00;99.90
20504;DHT22;10410;51.046;6.980;2023-03-23T20:01:42;14.00;99.90
20504;DHT22;10410;51.046;6.980;2023-03-23T20:08:44;14.00;99.90
20504;DHT22;10410;51.046;6.980;2023-03-23T20:15:51;14.00;99.90
20504;DHT22;10410;51.046;6.980;2023-03-23T20:22:51;14.00;99.90
20504;DHT22;10410;51.046;6.980;2023-03-23T20:29:55;14.00;99.90
20504;DHT22;10410;51.046;6.980;2023-03-23T20:36:56;13.90;99.90
20504;DHT22;10410;51.046;6.980;2023-03-23T20:43:57;13.90;99.90
20504;DHT22;10410;51.046;6.980;2023-03-23T20:51:00;13.90;99.90
20504;DHT22;10410;51.046;6.980;2023-03-23T20:58:01;13.90;99.90
20504;DHT22;10410;51.046;6.980;2023-03-23T21:05:01;13.90;99.90
20504;DHT22;10410;51.046;6.980;2023-03-23T21:12:03;14.00;99.90
20504;DHT22;10410;51.046;6.980;2023-03-23T21:19:05;14.00;99.90
20504;DHT22;10410;51.046;6.980;2023-03-23T21:26:07;14.00;99.90
20504;DHT22;10410;51.046;6.980;2023-03-23T21:33:08;14.00;99.90
20504;DHT22;10410;51.046;6.980;2023-03-23T21:40:12;14.00;99.90
20504;DHT22;10410;51.046;6.980;2023-03-23T21:47:13;14.00;99.90
20504;DHT22;10410;51.046;6.980;2023-03-23T21:54:13;14.00;99.90
20504;DHT22;10410;51.046;6.980;2023-03-23T22:01:14;14.00;99.90
20504;DHT22;10410;51.046;6.980;2023-03-23T22:08:15;13.90;99.90
20504;DHT22;10410;51.046;6.980;2023-03-23T22:15:15;13.80;99.90
20504;DHT22;10410;51.046;6.980;2023-03-23T22:22:16;13.80;99.90
20504;DHT22;10410;51.046;6.980;2023-03-23T22:29:18;13.70;99.90
20504;DHT22;10410;51.046;6.980;2023-03-23T22:36:19;13.70;99.90
20504;DHT22;10410;51.046;6.980;2023-03-23T22:43:20;13.50;99.90
20504;DHT22;10410;51.046;6.980;2023-03-23T22:50:20;13.50;99.90
20504;DHT22;10410;51.046;6.980;2023-03-23T22:57:23;13.40;99.90
20504;DHT22;10410;51.046;6.980;2023-03-23T23:04:23;13.20;99.90
20504;DHT22;10410;51.046;6.980;2023-03-23T23:11:24;13.10;99.90
20504;DHT22;10410;51.046;6.980;2023-03-23T23:18:26;13.00;99.90
20504;DHT22;10410;51.046;6.980;2023-03-23T23:25:26;12.90;99.90
20504;DHT22;10410;51.046;6.980;2023-03-23T23:32:27;12.90;99.90
20504;DHT22;10410;51.046;6.980;2023-03-23T23:39:28;12.90;99.90
20504;DHT22;10410;51.046;6.980;2023-03-23T23:46:29;12.90;99.90
20504;DHT22;10410;51.046;6.980;2023-03-23T23:53:30;12.90;99.90
